Time;durP1;ratioP1;P1;durP2;ratioP2;P2;SDS_P1;SDS_P2;PMS_P1;PMS_P2;Temp;Humidity;BMP_temperature;BMP_pressure;BME280_temperature;BME280_humidity;BME280_pressure;Samples;Min_cycle;Max_cycle;Signal;HPM_P1;HPM_P2
2021/12/30 00:01:21;;;;;;;27.60;15.45;;;5.20;99.90;;;;;;5032378;28;20026;-74
2021/12/30 00:03:48;;;;;;;28.65;15.65;;;5.20;99.90;;;;;;5017373;28;20116;-74
2021/12/30 00:06:17;;;;;;;23.02;14.27;;;5.40;99.90;;;;;;5017061;28;20018;-74
2021/12/30 00:08:44;;;;;;;25.20;13.25;;;5.40;99.90;;;;;;5031806;28;20039;-74
2021/12/30 00:11:10;;;;;;;26.02;12.90;;;5.30;99.90;;;;;;5025837;28;20022;-74
2021/12/30 00:13:39;;;;;;;23.17;14.32;;;5.30;99.90;;;;;;5020258;28;20056;-74
2021/12/30 00:16:05;;;;;;;26.83;15.65;;;5.20;99.90;;;;;;5020071;28;20021;-74
2021/12/30 00:18:31;;;;;;;29.77;15.20;;;5.20;99.90;;;;;;5020158;28;20087;-74
2021/12/30 00:20:56;;;;;;;22.38;13.88;;;5.20;99.90;;;;;;5018460;28;20367;-74
2021/12/30 00:23:23;;;;;;;23.52;12.90;;;5.20;99.90;;;;;;5030427;28;20475;-74
2021/12/30 00:25:49;;;;;;;25.13;13.93;;;5.30;99.90;;;;;;5031307;28;20515;-74
2021/12/30 00:28:24;;;;;;;31.80;17.60;;;5.30;99.90;;;;;;5021254;28;20029;-74
2021/12/30 00:30:51;;;;;;;38.88;18.75;;;5.20;99.90;;;;;;5030800;28;20037;-74
2021/12/30 00:33:18;;;;;;;36.65;19.45;;;5.20;99.90;;;;;;5031185;28;20117;-74
2021/12/30 00:35:44;;;;;;;31.10;16.88;;;5.20;99.90;;;;;;5016108;28;20022;-74
2021/12/30 00:38:10;;;;;;;33.08;18.50;;;5.10;99.90;;;;;;5031070;28;20540;-74
2021/12/30 00:40:37;;;;;;;34.13;19.20;;;4.90;99.90;;;;;;5030800;28;20026;-74
2021/12/30 00:43:05;;;;;;;37.63;19.83;;;4.80;99.90;;;;;;5016342;28;20022;-74
2021/12/30 00:45:32;;;;;;;39.00;20.35;;;4.90;99.90;;;;;;5030883;28;20377;-74
2021/12/30 00:47:58;;;;;;;36.28;19.85;;;4.90;99.90;;;;;;5030922;28;20032;-74
2021/12/30 00:50:25;;;;;;;44.95;22.60;;;4.90;99.90;;;;;;5030783;28;20029;-74
2021/12/30 00:52:52;;;;;;;39.30;20.15;;;5.00;99.90;;;;;;5030739;28;20503;-74
2021/12/30 00:55:17;;;;;;;25.25;14.82;;;5.10;99.90;;;;;;5021215;28;20474;-74
2021/12/30 00:57:43;;;;;;;25.35;14.18;;;5.10;99.90;;;;;;5030808;28;20106;-74
2021/12/30 01:00:16;;;;;;;26.48;14.73;;;5.10;99.90;;;;;;5030281;28;20026;-74
2021/12/30 01:02:43;;;;;;;30.90;15.77;;;5.10;99.90;;;;;;5029159;28;20025;-74
2021/12/30 01:05:09;;;;;;;21.88;12.80;;;5.10;99.90;;;;;;5027975;28;20018;-74
2021/12/30 01:07:35;;;;;;;18.05;10.40;;;5.10;99.90;;;;;;5029346;28;20032;-74
2021/12/30 01:10:02;;;;;;;13.52;8.18;;;5.20;99.90;;;;;;5011253;28;20031;-74
2021/12/30 01:12:29;;;;;;;14.18;8.82;;;5.30;99.90;;;;;;5029139;28;20109;-74
2021/12/30 01:14:54;;;;;;;23.02;13.02;;;5.40;99.90;;;;;;5029337;28;20026;-74
2021/12/30 01:17:38;;;;;;;17.10;10.65;;;5.40;99.90;;;;;;5032868;28;20387;-74
2021/12/30 01:20:04;;;;;;;12.57;8.60;;;5.40;99.90;;;;;;5034817;28;20021;-74
2021/12/30 01:22:33;;;;;;;12.75;7.88;;;5.50;99.90;;;;;;5034741;28;20037;-74
2021/12/30 01:25:00;;;;;;;12.20;7.45;;;5.60;99.90;;;;;;5034927;28;20447;-73
2021/12/30 01:27:26;;;;;;;10.77;5.85;;;5.60;99.90;;;;;;5034015;28;20065;-74
2021/12/30 01:29:52;;;;;;;10.13;7.60;;;5.60;99.90;;;;;;5034664;28;20480;-74
2021/12/30 01:32:17;;;;;;;10.00;7.53;;;5.60;99.90;;;;;;5034635;28;20029;-74
2021/12/30 01:34:43;;;;;;;16.45;10.45;;;5.60;99.90;;;;;;5034517;28;20029;-74
2021/12/30 01:37:09;;;;;;;14.43;8.32;;;5.50;99.90;;;;;;5016729;28;20054;-74
2021/12/30 01:39:41;;;;;;;11.70;7.53;;;5.60;99.90;;;;;;5016798;28;20018;-74
2021/12/30 01:42:08;;;;;;;10.52;7.18;;;5.60;99.90;;;;;;5034528;28;20060;-74
2021/12/30 01:44:34;;;;;;;15.68;9.85;;;5.70;99.90;;;;;;5016723;28;20025;-74
2021/12/30 01:47:02;;;;;;;18.20;10.45;;;5.50;99.90;;;;;;5034237;28;20022;-74
2021/12/30 01:49:28;;;;;;;13.48;8.93;;;5.40;99.90;;;;;;5034448;28;20029;-74
2021/12/30 01:51:55;;;;;;;12.52;8.18;;;5.50;99.90;;;;;;5016389;28;20034;-74
2021/12/30 01:54:22;;;;;;;17.10;10.32;;;5.50;99.90;;;;;;5034148;28;20038;-74
2021/12/30 01:56:50;;;;;;;16.27;11.27;;;5.20;99.90;;;;;;5034232;28;20059;-74
2021/12/30 01:59:18;;;;;;;17.70;11.48;;;5.10;99.90;;;;;;5034283;28;20037;-74
2021/12/30 02:01:45;;;;;;;20.60;11.65;;;5.00;99.90;;;;;;5016411;28;20060;-74
2021/12/30 02:04:11;;;;;;;20.98;12.55;;;4.90;99.90;;;;;;5033934;28;20025;-74
2021/12/30 02:06:37;;;;;;;20.30;12.05;;;5.00;99.90;;;;;;5016242;28;20387;-74
2021/12/30 02:09:03;;;;;;;19.80;12.35;;;5.00;99.90;;;;;;5016287;28;20033;-74
2021/12/30 02:11:29;;;;;;;14.25;9.80;;;5.00;99.90;;;;;;5016068;28;20034;-74
2021/12/30 02:13:56;;;;;;;16.35;6.95;;;5.00;99.90;;;;;;5016061;28;20480;-74
2021/12/30 02:16:22;;;;;;;7.03;5.38;;;5.20;99.90;;;;;;5016266;28;20391;-74
2021/12/30 02:18:49;;;;;;;8.70;6.75;;;5.20;99.90;;;;;;5015957;28;20026;-74
2021/12/30 02:21:15;;;;;;;11.60;6.97;;;5.20;99.90;;;;;;5033665;28;20461;-74
2021/12/30 02:23:41;;;;;;;15.85;7.60;;;5.10;99.90;;;;;;5033855;28;20025;-74
2021/12/30 02:26:16;;;;;;;10.45;7.40;;;5.10;99.90;;;;;;5033023;28;20055;-74
2021/12/30 02:28:42;;;;;;;12.73;8.65;;;5.10;99.90;;;;;;5014928;28;20033;-74
2021/12/30 02:31:18;;;;;;;12.65;8.60;;;5.10;99.90;;;;;;5014230;28;20029;-74
2021/12/30 02:33:45;;;;;;;10.98;7.43;;;5.00;99.90;;;;;;5032597;28;20053;-74
2021/12/30 02:36:14;;;;;;;8.93;6.30;;;4.90;99.90;;;;;;5032324;28;20025;-74
2021/12/30 02:38:45;;;;;;;7.95;6.10;;;5.00;99.90;;;;;;5032333;28;20025;-74
2021/12/30 02:41:17;;;;;;;7.60;5.80;;;5.10;99.90;;;;;;5014595;28;20072;-74
2021/12/30 02:43:44;;;;;;;9.15;6.25;;;5.20;99.90;;;;;;5032259;28;20064;-74
2021/12/30 02:46:10;;;;;;;8.35;6.30;;;5.10;99.90;;;;;;5014499;28;20017;-74
2021/12/30 02:48:41;;;;;;;7.63;6.22;;;5.00;99.90;;;;;;5032450;28;20491;-74
2021/12/30 02:51:09;;;;;;;7.03;5.50;;;4.90;99.90;;;;;;5014466;28;20029;-74
2021/12/30 02:53:35;;;;;;;6.55;5.47;;;4.90;99.90;;;;;;5032109;28;20025;-74
2021/12/30 02:56:02;;;;;;;7.43;5.57;;;5.00;99.90;;;;;;5032111;28;20018;-74
2021/12/30 02:58:28;;;;;;;9.80;6.72;;;4.80;99.90;;;;;;5031915;28;20108;-74
2021/12/30 03:01:04;;;;;;;8.60;6.95;;;4.80;99.90;;;;;;5032181;28;20175;-74
2021/12/30 03:03:30;;;;;;;9.23;6.88;;;4.80;99.90;;;;;;5014444;28;20064;-74
2021/12/30 03:05:57;;;;;;;8.45;6.05;;;4.80;99.90;;;;;;5031918;28;20049;-74
2021/12/30 03:08:24;;;;;;;9.15;6.53;;;4.70;99.90;;;;;;5031947;28;20025;-74
2021/12/30 03:10:50;;;;;;;11.07;7.43;;;4.70;99.90;;;;;;5031941;28;20035;-74
2021/12/30 03:13:19;;;;;;;9.18;7.22;;;4.60;99.90;;;;;;5032056;28;20522;-74
2021/12/30 03:15:47;;;;;;;7.88;6.65;;;4.70;99.90;;;;;;5031924;28;20033;-74
2021/12/30 03:18:13;;;;;;;10.48;6.20;;;4.50;99.90;;;;;;5031796;28;20173;-74
2021/12/30 03:20:39;;;;;;;9.98;7.40;;;4.40;99.90;;;;;;5013498;28;20021;-74
2021/12/30 03:23:05;;;;;;;9.77;6.72;;;4.40;99.90;;;;;;5014070;28;20041;-74
2021/12/30 03:25:31;;;;;;;8.07;6.20;;;4.40;99.90;;;;;;4988426;28;1240618;-74
2021/12/30 03:27:58;;;;;;;11.38;6.32;;;4.40;99.90;;;;;;5032450;28;20041;-74
2021/12/30 03:30:24;;;;;;;9.00;6.55;;;4.40;99.90;;;;;;5032511;28;20112;-74
2021/12/30 03:32:51;;;;;;;9.68;6.28;;;4.60;99.90;;;;;;5014550;28;20112;-74
2021/12/30 03:35:17;;;;;;;9.32;6.55;;;4.50;99.90;;;;;;5032369;28;20036;-74
2021/12/30 03:37:43;;;;;;;13.52;7.10;;;4.60;99.90;;;;;;5012731;28;20044;-74
2021/12/30 03:40:13;;;;;;;10.27;5.95;;;4.60;99.90;;;;;;5012126;28;20040;-74
2021/12/30 03:42:39;;;;;;;12.43;7.88;;;4.60;99.90;;;;;;5012345;28;20048;-74
2021/12/30 03:45:07;;;;;;;14.88;7.57;;;4.50;99.90;;;;;;5012487;28;20520;-74
2021/12/30 03:47:37;;;;;;;17.50;8.43;;;4.50;99.90;;;;;;4994905;28;20050;-74
2021/12/30 03:50:06;;;;;;;13.57;8.93;;;4.40;99.90;;;;;;5012483;28;20017;-74
2021/12/30 03:52:32;;;;;;;16.65;9.23;;;4.20;99.90;;;;;;5012131;28;20033;-74
2021/12/30 03:54:58;;;;;;;21.05;11.50;;;4.20;99.90;;;;;;4994574;28;20030;-74
2021/12/30 03:57:24;;;;;;;20.60;11.15;;;4.30;99.90;;;;;;5012298;28;20018;-74
2021/12/30 03:59:50;;;;;;;19.45;10.90;;;4.30;99.90;;;;;;4994759;28;20525;-74
2021/12/30 04:02:16;;;;;;;15.95;10.52;;;4.30;99.90;;;;;;5011922;28;20033;-74
2021/12/30 04:04:43;;;;;;;14.65;10.57;;;4.20;99.90;;;;;;5012218;28;20026;-74
2021/12/30 04:07:09;;;;;;;22.00;11.93;;;4.20;99.90;;;;;;5027367;28;20495;-74
2021/12/30 04:09:36;;;;;;;20.42;11.20;;;4.20;99.90;;;;;;5031782;28;20045;-74
2021/12/30 04:12:03;;;;;;;17.23;10.88;;;4.20;99.90;;;;;;5013906;28;20036;-74
2021/12/30 04:14:29;;;;;;;19.10;11.38;;;4.20;99.90;;;;;;5014162;28;20118;-74
2021/12/30 04:16:55;;;;;;;23.20;11.57;;;4.20;99.90;;;;;;5031723;28;20064;-74
2021/12/30 04:19:21;;;;;;;17.52;10.27;;;4.10;99.90;;;;;;5031610;28;20025;-74
2021/12/30 04:21:47;;;;;;;17.73;10.68;;;4.10;99.90;;;;;;5013834;28;20480;-74
2021/12/30 04:24:14;;;;;;;17.60;11.30;;;4.10;99.90;;;;;;5031596;28;20163;-74
2021/12/30 04:26:40;;;;;;;23.08;12.52;;;4.00;99.90;;;;;;5031465;28;20416;-74
2021/12/30 04:29:06;;;;;;;21.52;12.60;;;3.90;99.90;;;;;;5013989;28;20029;-74
2021/12/30 04:31:32;;;;;;;22.85;12.77;;;3.90;99.90;;;;;;5013422;28;20025;-74
2021/12/30 04:33:58;;;;;;;20.83;12.02;;;4.00;99.90;;;;;;5031553;28;20048;-74
2021/12/30 04:36:24;;;;;;;21.90;12.45;;;4.00;99.90;;;;;;5032340;28;20025;-74
2021/12/30 04:38:50;;;;;;;19.52;12.10;;;4.00;99.90;;;;;;5032214;28;20028;-74
2021/12/30 04:41:16;;;;;;;23.05;13.20;;;4.00;99.90;;;;;;5032272;28;20116;-74
2021/12/30 04:43:42;;;;;;;20.50;12.35;;;4.00;99.90;;;;;;5014803;28;20404;-75
2021/12/30 04:46:08;;;;;;;20.58;12.75;;;3.90;99.90;;;;;;5014988;28;20037;-74
2021/12/30 04:48:34;;;;;;;24.92;12.65;;;3.90;99.90;;;;;;5014296;28;20044;-74
2021/12/30 04:51:00;;;;;;;24.98;14.98;;;3.90;99.90;;;;;;5014819;28;20369;-74
2021/12/30 04:53:26;;;;;;;21.58;12.57;;;3.90;99.90;;;;;;5018122;28;20552;-74
2021/12/30 04:55:52;;;;;;;25.02;14.30;;;3.90;99.90;;;;;;5035569;28;20250;-74
2021/12/30 04:58:18;;;;;;;26.30;13.68;;;3.90;99.90;;;;;;5035639;28;20021;-74
2021/12/30 05:00:44;;;;;;;24.42;13.23;;;3.90;99.90;;;;;;5017670;28;20357;-74
2021/12/30 05:03:14;;;;;;;21.23;12.90;;;4.00;99.90;;;;;;5035384;28;20033;-74
2021/12/30 05:05:45;;;;;;;20.87;12.63;;;3.90;99.90;;;;;;5035149;28;20021;-74
2021/12/30 05:08:15;;;;;;;20.23;13.05;;;3.90;99.90;;;;;;5035419;28;20038;-74
2021/12/30 05:10:41;;;;;;;22.70;11.73;;;3.80;99.90;;;;;;5035290;28;20029;-74
2021/12/30 05:13:08;;;;;;;25.52;11.80;;;3.90;99.90;;;;;;5035416;28;20132;-74
2021/12/30 05:15:35;;;;;;;17.08;10.88;;;3.90;99.90;;;;;;5035072;28;20056;-74
2021/12/30 05:18:02;;;;;;;20.95;10.88;;;4.00;99.90;;;;;;5034995;28;20028;-75
2021/12/30 05:20:28;;;;;;;19.88;11.82;;;3.90;99.90;;;;;;5034513;28;20025;-75
2021/12/30 05:22:54;;;;;;;23.80;11.48;;;3.90;99.90;;;;;;5035149;28;20387;-74
2021/12/30 05:25:20;;;;;;;19.65;11.55;;;3.80;99.90;;;;;;5017042;28;20021;-74
2021/12/30 05:27:47;;;;;;;18.88;10.57;;;3.90;99.90;;;;;;5035219;28;20036;-74
2021/12/30 05:30:14;;;;;;;20.40;10.50;;;3.80;99.90;;;;;;5034868;28;20075;-75
2021/12/30 05:32:40;;;;;;;16.08;9.93;;;3.90;99.90;;;;;;5034652;28;20053;-75
2021/12/30 05:35:09;;;;;;;19.35;10.30;;;3.90;99.90;;;;;;5034813;28;20108;-74
2021/12/30 05:37:34;;;;;;;15.88;9.65;;;3.70;99.90;;;;;;5034692;28;20025;-74
2021/12/30 05:40:01;;;;;;;21.97;11.00;;;3.60;99.90;;;;;;5016960;28;20483;-74
2021/12/30 05:42:26;;;;;;;19.25;11.52;;;3.50;99.90;;;;;;5016934;28;20030;-74
2021/12/30 05:44:53;;;;;;;18.20;10.77;;;3.50;99.90;;;;;;5034596;28;20079;-75
2021/12/30 05:47:19;;;;;;;18.45;10.88;;;3.60;99.90;;;;;;5034350;28;20026;-74
2021/12/30 05:49:45;;;;;;;19.87;10.80;;;3.70;99.90;;;;;;5034553;28;20087;-74
2021/12/30 05:52:11;;;;;;;20.00;10.53;;;3.70;99.90;;;;;;5016612;28;20113;-74
2021/12/30 05:54:37;;;;;;;24.53;12.63;;;3.70;99.90;;;;;;5034480;28;20379;-74
2021/12/30 05:57:03;;;;;;;23.80;14.03;;;3.60;99.90;;;;;;5034197;28;20288;-74
2021/12/30 05:59:29;;;;;;;25.83;14.70;;;3.60;99.90;;;;;;5016693;28;20083;-74
2021/12/30 06:01:55;;;;;;;21.83;14.27;;;3.60;99.90;;;;;;5033727;28;20096;-74
2021/12/30 06:04:20;;;;;;;23.00;13.50;;;3.70;99.90;;;;;;5034121;28;20159;-74
2021/12/30 06:06:46;;;;;;;19.83;13.23;;;3.60;99.90;;;;;;5016449;28;20071;-75
2021/12/30 06:09:12;;;;;;;19.37;12.63;;;3.60;99.90;;;;;;5034054;28;20029;-74
2021/12/30 06:11:37;;;;;;;22.83;13.00;;;3.60;99.90;;;;;;5033912;28;20026;-74
2021/12/30 06:14:04;;;;;;;20.90;14.43;;;3.60;99.90;;;;;;5034306;28;20029;-74
2021/12/30 06:16:30;;;;;;;22.67;13.73;;;3.60;99.90;;;;;;5033954;28;20018;-74
2021/12/30 06:18:57;;;;;;;22.40;13.93;;;3.60;99.90;;;;;;5033808;28;20376;-75
2021/12/30 06:21:23;;;;;;;21.40;13.43;;;3.70;99.90;;;;;;5033897;28;20083;-75
2021/12/30 06:23:49;;;;;;;22.50;13.53;;;3.70;99.90;;;;;;5033463;28;20033;-75
2021/12/30 06:26:14;;;;;;;19.13;12.57;;;3.70;99.90;;;;;;5033611;28;20112;-74
2021/12/30 06:28:40;;;;;;;21.50;13.67;;;3.70;99.90;;;;;;5016105;28;20045;-75
2021/12/30 06:31:06;;;;;;;20.30;12.57;;;3.70;99.90;;;;;;5033552;28;20025;-75
2021/12/30 06:33:32;;;;;;;19.20;12.33;;;3.60;99.90;;;;;;5034650;28;20060;-74
2021/12/30 06:35:58;;;;;;;21.35;12.90;;;3.60;99.90;;;;;;5035032;28;20056;-82
2021/12/30 06:38:23;;;;;;;21.80;12.53;;;3.60;99.90;;;;;;5033987;28;20025;-83
2021/12/30 06:40:49;;;;;;;21.73;11.80;;;3.60;99.90;;;;;;5034345;28;20028;-82
2021/12/30 06:43:15;;;;;;;17.70;10.53;;;3.50;99.90;;;;;;5033913;28;20025;-82
2021/12/30 06:45:44;;;;;;;10.57;7.50;;;3.50;99.90;;;;;;5033251;28;20022;-83
2021/12/30 06:48:14;;;;;;;6.10;5.07;;;3.60;99.90;;;;;;5033314;28;20070;-83
2021/12/30 06:50:40;;;;;;;3.78;3.47;;;3.80;99.90;;;;;;5015277;28;20491;-81
2021/12/30 06:53:06;;;;;;;4.30;3.33;;;4.10;99.90;;;;;;5033274;28;20502;-82
2021/12/30 06:55:32;;;;;;;5.83;4.50;;;4.30;99.90;;;;;;5033169;28;20100;-82
2021/12/30 06:57:58;;;;;;;11.13;7.00;;;4.30;99.90;;;;;;5033026;28;20137;-81
2021/12/30 07:00:24;;;;;;;23.67;12.80;;;4.30;99.90;;;;;;5033193;28;20498;-82
2021/12/30 07:02:50;;;;;;;22.08;13.52;;;4.10;99.90;;;;;;5033030;28;20152;-82
2021/12/30 07:05:16;;;;;;;24.23;14.13;;;4.00;99.90;;;;;;5033077;28;20045;-82
2021/12/30 07:07:44;;;;;;;24.92;15.80;;;4.00;99.90;;;;;;5015229;28;20068;-82
2021/12/30 07:10:10;;;;;;;28.03;17.17;;;4.00;99.90;;;;;;5032924;28;20024;-82
2021/12/30 07:12:37;;;;;;;32.83;18.87;;;3.90;99.90;;;;;;5032714;28;20025;-82
2021/12/30 07:15:05;;;;;;;33.00;20.42;;;3.80;99.90;;;;;;5014317;28;20037;-82
2021/12/30 07:17:32;;;;;;;34.63;20.77;;;3.80;99.90;;;;;;5032321;28;20032;-83
2021/12/30 07:19:58;;;;;;;45.73;24.73;;;3.80;99.90;;;;;;5032801;28;20043;-82
2021/12/30 07:22:24;;;;;;;46.72;25.42;;;3.80;99.90;;;;;;5014875;28;20037;-82
2021/12/30 07:24:50;;;;;;;46.95;24.58;;;3.80;99.90;;;;;;5032761;28;20033;-82
2021/12/30 07:27:16;;;;;;;38.63;23.40;;;3.80;99.90;;;;;;5032422;28;20111;-82
2021/12/30 07:29:42;;;;;;;37.90;22.73;;;3.80;99.90;;;;;;5032536;28;20026;-83
2021/12/30 07:32:07;;;;;;;40.97;22.03;;;3.70;99.90;;;;;;5014878;28;20025;-82
2021/12/30 07:34:33;;;;;;;36.00;20.97;;;3.70;99.90;;;;;;5014818;28;20021;-82
2021/12/30 07:36:59;;;;;;;36.83;20.33;;;3.80;99.90;;;;;;5016230;28;20021;-82
2021/12/30 07:39:25;;;;;;;33.65;20.17;;;3.80;99.90;;;;;;5015880;28;20468;-82
2021/12/30 07:41:50;;;;;;;33.28;19.85;;;3.80;99.90;;;;;;5033061;28;20391;-82
2021/12/30 07:44:16;;;;;;;31.23;20.20;;;3.90;99.90;;;;;;5033636;28;20041;-82
2021/12/30 07:46:42;;;;;;;31.53;19.57;;;3.80;99.90;;;;;;5015997;28;20021;-82
2021/12/30 07:49:08;;;;;;;37.50;21.92;;;3.90;99.90;;;;;;5033538;28;20107;-82
2021/12/30 07:51:33;;;;;;;36.78;20.17;;;3.80;99.90;;;;;;5015772;28;20515;-82
2021/12/30 07:53:59;;;;;;;31.43;19.00;;;3.80;99.90;;;;;;5033323;28;20025;-82
2021/12/30 07:56:25;;;;;;;28.73;18.77;;;3.80;99.90;;;;;;5033110;28;20471;-81
2021/12/30 07:58:51;;;;;;;33.73;20.40;;;3.90;99.90;;;;;;5033153;28;20111;-81
2021/12/30 08:01:17;;;;;;;26.15;18.17;;;3.90;99.90;;;;;;5015614;28;20071;-82
2021/12/30 08:03:43;;;;;;;27.13;18.17;;;4.00;99.90;;;;;;5033309;28;20029;-82
2021/12/30 08:06:09;;;;;;;34.17;21.00;;;4.00;99.90;;;;;;5033108;28;20407;-81
2021/12/30 08:08:35;;;;;;;33.63;20.58;;;4.10;99.90;;;;;;5033223;28;20079;-81
2021/12/30 08:11:00;;;;;;;32.88;20.55;;;4.20;99.90;;;;;;5032946;28;20029;-82
2021/12/30 08:13:27;;;;;;;29.55;18.83;;;4.20;99.90;;;;;;5014186;28;20733;-81
2021/12/30 08:15:53;;;;;;;31.67;18.63;;;4.20;99.90;;;;;;5032426;28;20387;-82
2021/12/30 08:18:19;;;;;;;31.30;18.45;;;4.20;99.90;;;;;;5032272;28;20032;-81
2021/12/30 08:20:45;;;;;;;29.00;19.08;;;4.30;99.90;;;;;;5020476;28;20022;-82
2021/12/30 08:23:11;;;;;;;25.73;18.08;;;4.30;99.90;;;;;;5017860;28;20029;-82
2021/12/30 08:25:37;;;;;;;27.70;18.58;;;4.30;99.90;;;;;;5031685;28;20041;-82
2021/12/30 08:28:03;;;;;;;32.78;20.98;;;4.30;99.90;;;;;;5032437;28;20048;-82
2021/12/30 08:30:29;;;;;;;29.10;18.53;;;4.30;99.90;;;;;;5020402;28;20049;-81
2021/12/30 08:32:55;;;;;;;26.52;17.90;;;4.40;99.90;;;;;;5032367;28;20483;-81
2021/12/30 08:35:21;;;;;;;23.75;17.50;;;4.40;99.90;;;;;;5017085;28;20036;-82
2021/12/30 08:37:49;;;;;;;24.42;17.23;;;4.40;99.90;;;;;;5020733;28;20021;-81
2021/12/30 08:40:16;;;;;;;30.35;20.20;;;4.50;99.90;;;;;;5031235;28;20554;-74
2021/12/30 08:42:42;;;;;;;36.17;22.90;;;4.50;99.90;;;;;;5030544;28;20093;-74
2021/12/30 08:45:09;;;;;;;37.08;26.20;;;4.50;99.90;;;;;;5029893;28;20029;-74
2021/12/30 08:47:36;;;;;;;39.25;25.90;;;4.60;99.90;;;;;;5014113;28;20031;-74
2021/12/30 08:50:05;;;;;;;37.35;23.80;;;4.60;99.90;;;;;;5030313;28;20040;-74
2021/12/30 08:52:31;;;;;;;33.10;22.75;;;4.70;99.90;;;;;;5030847;28;20041;-74
2021/12/30 08:55:04;;;;;;;28.73;20.08;;;4.80;99.90;;;;;;5018515;28;20033;-75
2021/12/30 08:57:30;;;;;;;32.90;21.00;;;4.80;99.90;;;;;;5026214;28;20016;-74
2021/12/30 08:59:57;;;;;;;29.38;20.40;;;4.90;99.90;;;;;;5014797;28;20036;-75
2021/12/30 09:02:23;;;;;;;28.92;20.08;;;4.90;99.90;;;;;;5011450;28;20025;-74
2021/12/30 09:04:49;;;;;;;30.05;19.23;;;4.90;99.90;;;;;;5027254;28;20091;-74
2021/12/30 09:07:18;;;;;;;28.17;19.45;;;4.80;99.90;;;;;;5018962;28;20025;-74
2021/12/30 09:09:44;;;;;;;28.10;19.35;;;4.80;99.90;;;;;;5014566;28;20017;-74
2021/12/30 09:12:11;;;;;;;32.00;20.65;;;4.90;99.90;;;;;;5013111;28;20025;-75
2021/12/30 09:14:37;;;;;;;31.85;19.85;;;4.90;99.90;;;;;;5010160;28;20112;-75
2021/12/30 09:17:03;;;;;;;31.40;19.65;;;4.90;99.90;;;;;;5012893;28;20018;-74
2021/12/30 09:19:29;;;;;;;27.20;18.90;;;4.90;99.90;;;;;;5027821;28;20044;-75
2021/12/30 09:21:56;;;;;;;30.45;18.98;;;5.00;99.90;;;;;;5027711;28;20372;-74
2021/12/30 09:24:23;;;;;;;28.13;19.65;;;5.00;99.90;;;;;;5026173;28;20014;-74
2021/12/30 09:26:49;;;;;;;30.52;19.88;;;5.00;99.90;;;;;;5027293;28;20054;-75
2021/12/30 09:29:14;;;;;;;28.23;19.90;;;5.10;99.90;;;;;;5010321;28;20026;-75
2021/12/30 09:31:46;;;;;;;30.38;20.23;;;5.10;99.90;;;;;;5028979;28;20026;-74
2021/12/30 09:34:13;;;;;;;30.83;20.92;;;5.20;99.90;;;;;;5014599;28;20033;-74
2021/12/30 09:36:39;;;;;;;30.38;20.25;;;5.20;99.90;;;;;;5028420;28;20087;-75
2021/12/30 09:39:09;;;;;;;34.70;21.10;;;5.30;99.90;;;;;;5031271;28;20009;-75
2021/12/30 09:41:37;;;;;;;29.73;19.92;;;5.30;99.90;;;;;;5014371;28;20468;-75
2021/12/30 09:44:04;;;;;;;30.38;20.27;;;5.40;99.90;;;;;;5021539;28;20482;-75
2021/12/30 09:46:36;;;;;;;34.00;21.63;;;5.40;99.90;;;;;;5031896;28;20025;-75
2021/12/30 09:49:04;;;;;;;31.05;20.95;;;5.40;99.90;;;;;;5032067;28;20091;-75
2021/12/30 09:51:30;;;;;;;34.85;21.77;;;5.50;99.90;;;;;;5014464;28;20494;-82
2021/12/30 09:53:56;;;;;;;38.22;21.65;;;5.40;99.90;;;;;;5032771;28;20036;-81
2021/12/30 09:56:23;;;;;;;25.70;18.25;;;5.40;99.90;;;;;;5033170;28;20026;-82
2021/12/30 09:58:49;;;;;;;28.98;19.92;;;5.40;99.90;;;;;;5014870;28;20029;-81
2021/12/30 10:01:15;;;;;;;29.92;19.95;;;5.40;99.90;;;;;;5032878;28;20022;-80
2021/12/30 10:03:42;;;;;;;28.35;20.00;;;5.40;99.90;;;;;;5033277;28;20029;-81
2021/12/30 10:06:13;;;;;;;29.83;21.42;;;5.50;99.90;;;;;;5034945;28;20483;-80
2021/12/30 10:08:51;;;;;;;33.13;22.25;;;5.50;99.90;;;;;;5034813;28;20035;-82
2021/12/30 10:11:17;;;;;;;33.35;21.67;;;5.50;99.90;;;;;;5016772;28;20483;-81
2021/12/30 10:14:00;;;;;;;32.28;21.98;;;5.60;99.90;;;;;;5034563;28;20075;-81
2021/12/30 10:16:26;;;;;;;31.02;21.05;;;5.60;99.90;;;;;;5011150;28;20497;-75
2021/12/30 10:19:00;;;;;;;34.45;22.02;;;5.70;99.90;;;;;;5021924;28;20013;-75
2021/12/30 10:21:38;;;;;;;38.22;24.00;;;5.70;99.90;;;;;;5025855;28;20041;-74
2021/12/30 10:24:09;;;;;;;35.80;22.58;;;5.80;99.90;;;;;;5030925;28;20476;-75
2021/12/30 10:26:52;;;;;;;36.45;23.73;;;5.90;99.90;;;;;;5030719;28;20049;-75
2021/12/30 10:29:17;;;;;;;34.38;22.23;;;5.90;99.90;;;;;;5031003;28;20113;-75
2021/12/30 10:31:43;;;;;;;36.80;23.10;;;5.90;99.90;;;;;;5029455;28;20430;-74
2021/12/30 10:34:10;;;;;;;38.78;22.48;;;6.00;99.90;;;;;;5031019;28;20040;-76
2021/12/30 10:36:43;;;;;;;31.25;21.00;;;6.00;99.90;;;;;;5030932;28;20360;-75
2021/12/30 10:39:23;;;;;;;30.63;20.35;;;6.10;99.90;;;;;;5023427;28;20025;-74
2021/12/30 10:41:51;;;;;;;33.72;20.30;;;6.20;99.90;;;;;;5020414;28;20049;-81
2021/12/30 10:44:18;;;;;;;35.28;21.20;;;6.30;99.90;;;;;;5034195;28;20408;-82
2021/12/30 10:46:46;;;;;;;35.17;22.40;;;6.30;99.90;;;;;;5034211;28;20075;-82
2021/12/30 10:49:26;;;;;;;34.28;22.42;;;6.40;99.90;;;;;;5029153;28;20033;-81
2021/12/30 10:51:54;;;;;;;31.83;20.25;;;6.40;99.90;;;;;;5016046;28;20030;-81
2021/12/30 10:54:30;;;;;;;36.65;22.88;;;6.40;99.90;;;;;;5033859;28;20025;-81
2021/12/30 10:57:01;;;;;;;220.75;126.95;;;6.50;99.90;;;;;;5012858;28;20079;-80
2021/12/30 10:59:32;;;;;;;106.53;63.55;;;6.70;99.90;;;;;;5030462;28;20083;-79
2021/12/30 11:02:01;;;;;;;246.15;137.40;;;6.80;99.90;;;;;;5008438;28;20048;-80
2021/12/30 11:04:42;;;;;;;56.63;36.85;;;7.00;99.90;;;;;;5029274;28;20135;-80
2021/12/30 11:07:11;;;;;;;44.67;29.70;;;7.00;99.90;;;;;;5010440;28;20009;-82
2021/12/30 11:09:50;;;;;;;39.72;24.83;;;7.10;99.90;;;;;;5030750;28;20030;-81
2021/12/30 11:12:27;;;;;;;42.00;26.42;;;7.10;99.90;;;;;;5017237;28;20693;-75
2021/12/30 11:14:53;;;;;;;33.28;22.63;;;7.20;99.90;;;;;;5028716;28;20026;-75
2021/12/30 11:17:23;;;;;;;35.03;22.60;;;7.20;99.90;;;;;;5027758;28;20013;-75
2021/12/30 11:20:01;;;;;;;31.67;20.65;;;7.30;99.90;;;;;;5014415;28;20479;-75
2021/12/30 11:22:29;;;;;;;35.95;22.63;;;7.30;99.90;;;;;;5016133;28;20026;-76
2021/12/30 11:25:01;;;;;;;32.28;20.75;;;7.40;99.90;;;;;;5029965;28;20025;-76
2021/12/30 11:27:34;;;;;;;35.90;21.17;;;7.40;99.90;;;;;;5021141;28;20132;-76
2021/12/30 11:30:06;;;;;;;30.38;20.35;;;7.40;99.90;;;;;;5021529;28;20052;-77
2021/12/30 11:32:34;;;;;;;32.47;21.48;;;7.50;99.90;;;;;;5011789;28;20036;-77
2021/12/30 11:35:03;;;;;;;35.65;21.45;;;7.60;99.90;;;;;;5018599;28;20036;-80
2021/12/30 11:37:33;;;;;;;37.00;21.63;;;7.60;99.90;;;;;;5030675;28;20033;-80
2021/12/30 11:40:01;;;;;;;35.42;21.15;;;7.70;99.90;;;;;;5013021;28;20443;-83
2021/12/30 11:42:37;;;;;;;37.65;22.83;;;7.80;99.90;;;;;;5030557;28;20108;-80
2021/12/30 11:45:24;;;;;;;35.92;21.27;;;7.80;99.90;;;;;;5031492;28;20030;-78
2021/12/30 11:47:50;;;;;;;40.35;22.52;;;7.90;99.90;;;;;;5013046;28;20596;-79
2021/12/30 11:50:26;;;;;;;37.03;22.05;;;7.90;99.90;;;;;;5031457;28;20033;-82
2021/12/30 11:52:57;;;;;;;47.42;25.35;;;8.00;99.90;;;;;;5030621;28;20057;-81
2021/12/30 11:55:42;;;;;;;38.58;23.50;;;8.00;99.90;;;;;;5031011;28;20021;-81
2021/12/30 11:58:56;;;;;;;44.15;26.30;;;8.00;99.90;;;;;;5013358;28;20026;-81
2021/12/30 12:01:23;;;;;;;36.05;23.77;;;8.00;99.90;;;;;;4950699;28;20053;-81
2021/12/30 12:04:10;;;;;;;43.22;25.95;;;8.00;99.90;;;;;;5022596;28;20678;-81
2021/12/30 12:06:43;;;;;;;35.85;24.08;;;8.00;99.90;;;;;;5031214;28;20052;-81
2021/12/30 12:09:22;;;;;;;44.35;24.27;;;8.10;99.90;;;;;;5030441;28;20057;-81
2021/12/30 12:11:59;;;;;;;42.80;24.08;;;8.10;99.90;;;;;;5030649;28;20753;-80
2021/12/30 12:14:55;;;;;;;43.00;23.75;;;8.20;99.90;;;;;;5030745;28;20079;-81
2021/12/30 12:17:37;;;;;;;40.97;24.25;;;8.20;99.90;;;;;;5030299;28;20018;-81
2021/12/30 12:20:18;;;;;;;37.67;24.33;;;8.30;99.90;;;;;;5012475;28;20835;-80
2021/12/30 12:22:44;;;;;;;38.55;23.27;;;8.30;99.90;;;;;;5030266;28;20025;-81
2021/12/30 12:25:14;;;;;;;40.88;24.45;;;8.40;99.90;;;;;;5030218;28;20799;-79
2021/12/30 12:27:46;;;;;;;40.95;23.58;;;8.40;99.90;;;;;;5031016;28;20391;-81
2021/12/30 12:30:33;;;;;;;38.03;22.73;;;8.50;99.90;;;;;;5031067;28;20030;-81
2021/12/30 12:33:20;;;;;;;36.70;23.02;;;8.60;99.90;;;;;;5012887;28;20483;-81
2021/12/30 12:35:46;;;;;;;40.67;23.52;;;8.70;99.90;;;;;;5012344;28;20123;-81
2021/12/30 12:38:12;;;;;;;39.60;23.33;;;8.70;99.90;;;;;;5030724;28;20049;-81
2021/12/30 12:40:52;;;;;;;40.30;23.45;;;8.80;99.90;;;;;;5030361;28;20033;-81
2021/12/30 12:43:27;;;;;;;39.20;24.17;;;8.80;99.90;;;;;;5013259;28;20035;-81
2021/12/30 12:45:57;;;;;;;39.40;23.00;;;8.90;99.90;;;;;;5030635;28;20125;-81